Time;durP1;ratioP1;P1;durP2;ratioP2;P2;SDS_P1;SDS_P2;PMS_P1;PMS_P2;Temp;Humidity;BMP_temperature;BMP_pressure;BME280_temperature;BME280_humidity;BME280_pressure;Samples;Min_cycle;Max_cycle;Signal;HPM_P1;HPM_P2
2023/09/18 00:01:39;;;;;;;13.15;10.52;;;17.80;99.90;;;;;;4988555;28;20054;-35
2023/09/18 00:04:07;;;;;;;10.73;8.63;;;17.80;99.90;;;;;;4988346;28;20042;-35
2023/09/18 00:06:33;;;;;;;14.77;10.45;;;17.80;99.90;;;;;;4987121;28;20054;-35
2023/09/18 00:08:59;;;;;;;13.20;10.88;;;17.80;99.90;;;;;;4989269;28;20455;-35
2023/09/18 00:11:25;;;;;;;14.90;11.57;;;17.80;99.90;;;;;;4984786;28;20073;-35
2023/09/18 00:13:50;;;;;;;14.90;9.88;;;17.80;99.90;;;;;;4989173;28;20622;-35
2023/09/18 00:16:16;;;;;;;15.77;10.35;;;17.80;99.90;;;;;;4984960;28;20057;-35
2023/09/18 00:18:44;;;;;;;14.23;10.65;;;17.80;99.90;;;;;;4986483;28;20508;-35
2023/09/18 00:21:10;;;;;;;16.98;10.93;;;17.80;99.90;;;;;;4988922;28;20443;-36
2023/09/18 00:23:36;;;;;;;14.18;11.95;;;17.80;99.90;;;;;;4989257;28;20054;-35
2023/09/18 00:26:02;;;;;;;13.13;11.10;;;17.80;99.90;;;;;;4988944;28;20054;-35
2023/09/18 00:28:28;;;;;;;14.63;9.70;;;17.80;99.90;;;;;;4989065;28;20193;-34
2023/09/18 00:30:53;;;;;;;11.48;8.98;;;17.80;99.90;;;;;;4989809;28;20060;-35
2023/09/18 00:33:19;;;;;;;16.17;10.93;;;17.80;99.90;;;;;;4988778;28;20515;-35
2023/09/18 00:35:49;;;;;;;12.05;10.15;;;17.90;99.90;;;;;;4987440;28;20054;-35
2023/09/18 00:38:15;;;;;;;11.77;8.63;;;17.80;99.90;;;;;;4990358;28;20070;-35
2023/09/18 00:40:41;;;;;;;11.95;8.82;;;17.90;99.90;;;;;;4983237;28;20050;-35
2023/09/18 00:43:08;;;;;;;12.52;9.05;;;17.80;99.90;;;;;;4988813;28;20143;-35
2023/09/18 00:45:35;;;;;;;12.18;8.32;;;17.80;99.90;;;;;;4982963;28;20054;-35
2023/09/18 00:48:01;;;;;;;10.75;7.10;;;17.80;99.90;;;;;;4989341;28;20078;-35
2023/09/18 00:50:27;;;;;;;12.90;8.85;;;17.80;99.90;;;;;;4986390;28;20047;-35
2023/09/18 00:52:52;;;;;;;11.63;9.10;;;17.80;99.90;;;;;;4985248;28;20575;-35
2023/09/18 00:55:19;;;;;;;12.75;9.27;;;17.80;99.90;;;;;;4985507;28;20061;-35
2023/09/18 00:57:45;;;;;;;13.43;10.52;;;17.80;99.90;;;;;;4987582;28;20136;-36
2023/09/18 01:00:17;;;;;;;14.65;10.98;;;17.80;99.90;;;;;;4990113;28;20133;-35
2023/09/18 01:02:44;;;;;;;14.73;10.40;;;17.80;99.90;;;;;;4986096;28;20391;-35
2023/09/18 01:05:10;;;;;;;14.52;10.23;;;17.80;99.90;;;;;;4987311;28;20097;-35
2023/09/18 01:07:36;;;;;;;11.93;9.23;;;17.80;99.90;;;;;;4986955;28;20516;-35
2023/09/18 01:10:03;;;;;;;17.75;10.20;;;17.80;99.90;;;;;;4986673;28;20054;-35
2023/09/18 01:12:34;;;;;;;13.23;10.02;;;17.80;99.90;;;;;;4988385;28;20066;-35
2023/09/18 01:15:12;;;;;;;12.35;9.32;;;17.80;99.90;;;;;;4983928;28;20054;-35
2023/09/18 01:17:38;;;;;;;15.88;10.57;;;17.80;99.90;;;;;;4985812;28;20046;-35
2023/09/18 01:20:06;;;;;;;12.88;10.00;;;17.80;99.90;;;;;;4986491;28;20524;-35
2023/09/18 01:22:32;;;;;;;12.70;10.23;;;17.80;99.90;;;;;;4986634;28;20489;-35
2023/09/18 01:24:58;;;;;;;13.50;9.88;;;17.80;99.90;;;;;;4985804;28;21270;-35
2023/09/18 01:27:24;;;;;;;17.20;11.45;;;17.80;99.90;;;;;;4985314;28;20154;-35
2023/09/18 01:29:49;;;;;;;14.73;10.70;;;17.80;99.90;;;;;;4983998;28;20133;-35
2023/09/18 01:32:15;;;;;;;14.45;11.05;;;17.80;99.90;;;;;;4985810;28;20054;-35
2023/09/18 01:34:54;;;;;;;14.07;10.88;;;17.80;99.90;;;;;;4985995;28;20054;-35
2023/09/18 01:37:23;;;;;;;13.40;9.93;;;17.80;99.90;;;;;;4970266;28;20554;-35
2023/09/18 01:39:50;;;;;;;14.07;9.52;;;17.90;99.90;;;;;;4984990;28;20603;-35
2023/09/18 01:42:16;;;;;;;12.93;10.38;;;17.90;99.90;;;;;;4987995;28;20150;-35
2023/09/18 01:44:43;;;;;;;17.55;10.57;;;17.90;99.90;;;;;;4986113;28;20166;-35
2023/09/18 01:47:12;;;;;;;12.73;10.35;;;17.90;99.90;;;;;;4984067;28;20058;-35
2023/09/18 01:49:39;;;;;;;12.63;10.13;;;17.90;99.90;;;;;;4985297;28;20046;-35
2023/09/18 01:52:06;;;;;;;13.27;10.82;;;17.90;99.90;;;;;;4988256;28;20072;-35
2023/09/18 01:54:33;;;;;;;13.27;10.07;;;17.90;99.90;;;;;;4983818;28;20050;-35
2023/09/18 01:56:59;;;;;;;16.20;10.75;;;17.90;99.90;;;;;;4983372;28;20788;-35
2023/09/18 01:59:25;;;;;;;12.73;10.10;;;17.90;99.90;;;;;;4987834;28;20046;-35
2023/09/18 02:01:52;;;;;;;12.90;10.07;;;17.90;99.90;;;;;;4986531;28;20054;-35
2023/09/18 02:04:18;;;;;;;12.02;10.35;;;17.90;99.90;;;;;;4987089;28;20054;-35
2023/09/18 02:06:44;;;;;;;13.85;10.45;;;17.90;99.90;;;;;;4985210;28;20508;-35
2023/09/18 02:09:10;;;;;;;13.82;10.27;;;17.90;99.90;;;;;;4987593;28;20523;-35
2023/09/18 02:11:41;;;;;;;12.25;9.20;;;17.90;99.90;;;;;;4986744;28;20054;-35
2023/09/18 02:14:09;;;;;;;12.35;9.57;;;17.90;99.90;;;;;;4984637;28;20046;-35
2023/09/18 02:16:35;;;;;;;13.98;9.05;;;17.90;99.90;;;;;;4984755;28;20455;-35
2023/09/18 02:19:04;;;;;;;13.65;10.48;;;17.90;99.90;;;;;;4986895;28;20046;-35
2023/09/18 02:21:31;;;;;;;14.75;9.57;;;17.90;99.90;;;;;;4989847;28;20050;-35
2023/09/18 02:23:57;;;;;;;14.00;10.50;;;17.90;99.90;;;;;;4988251;28;20492;-35
2023/09/18 02:26:24;;;;;;;12.45;9.50;;;17.90;99.90;;;;;;4988976;28;20042;-35
2023/09/18 02:28:53;;;;;;;11.27;8.68;;;17.90;99.90;;;;;;4987674;28;20056;-36
2023/09/18 02:31:18;;;;;;;12.23;9.38;;;18.00;99.90;;;;;;4991289;28;20077;-35
2023/09/18 02:33:44;;;;;;;13.45;10.25;;;17.90;99.90;;;;;;4988998;28;20054;-35
2023/09/18 02:36:10;;;;;;;13.07;9.15;;;17.90;99.90;;;;;;4988902;28;20054;-35
2023/09/18 02:38:35;;;;;;;14.30;10.20;;;18.00;99.90;;;;;;4990393;28;20137;-35
2023/09/18 02:41:01;;;;;;;13.35;10.05;;;18.00;99.90;;;;;;4984171;28;20112;-35
2023/09/18 02:43:27;;;;;;;15.00;11.13;;;18.00;99.90;;;;;;4989207;28;20053;-35
2023/09/18 02:45:53;;;;;;;14.07;10.80;;;18.00;99.90;;;;;;4990717;28;20100;-35
2023/09/18 02:48:19;;;;;;;13.55;10.80;;;18.00;99.90;;;;;;4986385;28;20435;-35
2023/09/18 02:50:44;;;;;;;13.98;8.88;;;18.00;99.90;;;;;;4991457;28;20108;-35
2023/09/18 02:53:23;;;;;;;12.07;8.82;;;18.00;99.90;;;;;;4988799;28;20054;-35
2023/09/18 02:55:51;;;;;;;14.00;10.80;;;18.00;99.90;;;;;;4989677;28;20448;-35
2023/09/18 02:58:19;;;;;;;12.88;10.00;;;18.00;99.90;;;;;;4973339;28;20109;-35
2023/09/18 03:00:45;;;;;;;12.98;10.50;;;18.00;99.90;;;;;;4991788;28;20388;-35
2023/09/18 03:03:12;;;;;;;15.30;10.80;;;18.00;99.90;;;;;;4982596;28;20065;-35
2023/09/18 03:05:38;;;;;;;17.15;10.07;;;18.00;99.90;;;;;;4990265;28;20053;-35
2023/09/18 03:08:04;;;;;;;13.63;9.98;;;18.00;99.90;;;;;;4988191;28;20535;-35
2023/09/18 03:10:37;;;;;;;17.17;11.68;;;18.00;99.90;;;;;;4991828;28;20050;-35
2023/09/18 03:13:04;;;;;;;15.20;10.93;;;18.00;99.90;;;;;;4989275;28;20137;-35
2023/09/18 03:15:30;;;;;;;13.85;10.40;;;18.00;99.90;;;;;;4988045;28;20535;-35
2023/09/18 03:18:03;;;;;;;16.13;11.02;;;18.00;99.90;;;;;;4988410;28;20074;-35
2023/09/18 03:20:30;;;;;;;14.02;10.48;;;18.00;99.90;;;;;;4990836;28;20467;-35
2023/09/18 03:22:58;;;;;;;12.05;9.00;;;18.00;99.90;;;;;;4987577;28;20809;-35
2023/09/18 03:25:24;;;;;;;13.48;10.50;;;18.10;99.90;;;;;;4990907;28;20057;-35
2023/09/18 03:27:52;;;;;;;12.70;9.15;;;18.10;99.90;;;;;;4988686;28;20141;-35
2023/09/18 03:30:19;;;;;;;13.48;10.85;;;18.10;99.90;;;;;;4986604;28;20053;-35
2023/09/18 03:32:45;;;;;;;14.02;10.45;;;18.00;99.90;;;;;;4987494;28;20066;-35
2023/09/18 03:35:17;;;;;;;12.98;9.90;;;18.00;99.90;;;;;;4989964;28;20056;-35
2023/09/18 03:37:48;;;;;;;14.35;10.52;;;18.00;99.90;;;;;;4990866;28;20138;-35
2023/09/18 03:40:15;;;;;;;14.63;9.82;;;18.00;99.90;;;;;;4988412;28;20051;-35
2023/09/18 03:42:40;;;;;;;13.27;10.20;;;18.00;99.90;;;;;;4990025;28;20088;-35
2023/09/18 03:45:07;;;;;;;13.63;10.40;;;18.00;99.90;;;;;;4988156;28;20066;-35
2023/09/18 03:47:40;;;;;;;13.52;9.25;;;18.00;99.90;;;;;;4987513;28;20475;-35
2023/09/18 03:50:07;;;;;;;11.95;9.70;;;17.90;99.90;;;;;;4985884;28;20042;-35
2023/09/18 03:52:33;;;;;;;14.60;9.18;;;17.90;99.90;;;;;;4985209;28;20061;-35
2023/09/18 03:54:59;;;;;;;11.80;8.48;;;17.90;99.90;;;;;;4988499;28;20058;-36
2023/09/18 03:57:24;;;;;;;10.48;8.10;;;18.00;99.90;;;;;;4988980;28;20054;-35
2023/09/18 03:59:50;;;;;;;11.68;9.25;;;18.00;99.90;;;;;;4986533;28;20038;-35
2023/09/18 04:02:16;;;;;;;12.82;8.77;;;18.00;99.90;;;;;;4987972;28;20065;-35
2023/09/18 04:04:41;;;;;;;11.95;9.15;;;18.00;99.90;;;;;;4989326;28;20050;-35
2023/09/18 04:07:08;;;;;;;13.60;10.02;;;17.90;99.90;;;;;;4985457;28;20471;-35
2023/09/18 04:09:36;;;;;;;12.32;8.77;;;17.90;99.90;;;;;;4989455;28;20050;-35
2023/09/18 04:12:05;;;;;;;14.35;9.07;;;18.00;99.90;;;;;;4987516;28;20378;-35
2023/09/18 04:14:30;;;;;;;11.77;8.65;;;18.00;99.90;;;;;;5003260;28;20050;-35
2023/09/18 04:16:56;;;;;;;15.32;8.95;;;18.00;99.90;;;;;;4989708;28;20049;-35
2023/09/18 04:19:22;;;;;;;10.68;8.40;;;18.00;99.90;;;;;;4987159;28;20046;-35
2023/09/18 04:21:47;;;;;;;14.68;9.55;;;17.90;99.90;;;;;;4989410;28;20404;-35
2023/09/18 04:24:13;;;;;;;12.43;8.40;;;18.00;99.90;;;;;;4987497;28;20062;-35
2023/09/18 04:26:39;;;;;;;13.05;8.38;;;18.00;99.90;;;;;;4986520;28;20129;-35
2023/09/18 04:29:05;;;;;;;12.85;9.27;;;18.00;99.90;;;;;;4971346;28;20054;-35
2023/09/18 04:31:31;;;;;;;12.95;8.80;;;18.00;99.90;;;;;;4989471;28;20054;-35
2023/09/18 04:33:57;;;;;;;11.50;8.52;;;18.00;99.90;;;;;;4987762;28;20050;-35
2023/09/18 04:36:23;;;;;;;11.43;8.60;;;18.10;99.90;;;;;;4989503;28;20397;-35
2023/09/18 04:38:49;;;;;;;13.40;8.50;;;18.10;99.90;;;;;;4987894;28;20055;-35
2023/09/18 04:41:15;;;;;;;10.70;7.70;;;18.10;99.90;;;;;;5004224;28;20061;-35
2023/09/18 04:43:42;;;;;;;11.88;8.57;;;18.10;99.90;;;;;;4987346;28;20498;-34
2023/09/18 04:46:08;;;;;;;11.02;8.55;;;18.10;99.90;;;;;;4988493;28;20054;-35
2023/09/18 04:48:34;;;;;;;15.50;8.82;;;18.10;99.90;;;;;;4985313;28;20046;-34
2023/09/18 04:51:00;;;;;;;10.32;7.53;;;18.10;99.90;;;;;;4989412;28;20050;-34
2023/09/18 04:53:27;;;;;;;10.32;7.53;;;18.10;99.90;;;;;;4988662;28;20058;-35
2023/09/18 04:55:53;;;;;;;13.93;7.55;;;18.10;99.90;;;;;;4986752;28;20129;-35
2023/09/18 04:58:19;;;;;;;8.50;6.50;;;18.10;99.90;;;;;;4986091;28;20066;-35
2023/09/18 05:00:46;;;;;;;13.77;7.50;;;18.10;99.90;;;;;;4988019;28;20400;-35
2023/09/18 05:03:12;;;;;;;10.55;7.85;;;18.10;99.90;;;;;;4988566;28;20058;-35
2023/09/18 05:05:38;;;;;;;10.52;7.50;;;18.10;99.90;;;;;;4988477;28;20054;-34
2023/09/18 05:08:07;;;;;;;12.90;7.43;;;18.20;99.90;;;;;;4987648;28;20038;-34
2023/09/18 05:10:37;;;;;;;9.45;7.80;;;18.20;99.90;;;;;;4986095;28;20085;-35
2023/09/18 05:13:03;;;;;;;14.77;7.28;;;18.20;99.90;;;;;;4985003;28;20082;-35
2023/09/18 05:15:29;;;;;;;11.38;7.10;;;18.20;99.90;;;;;;4988898;28;20058;-35
2023/09/18 05:17:57;;;;;;;10.55;7.68;;;18.20;99.90;;;;;;4988239;28;20058;-34
2023/09/18 05:20:25;;;;;;;11.93;7.75;;;18.20;99.90;;;;;;4985827;28;20073;-34
2023/09/18 05:22:55;;;;;;;11.70;7.10;;;18.20;99.90;;;;;;4993664;28;20057;-35
2023/09/18 05:25:22;;;;;;;11.73;7.95;;;18.20;99.90;;;;;;4987482;28;20069;-35
2023/09/18 05:28:00;;;;;;;10.45;7.18;;;18.20;99.90;;;;;;4983577;28;20054;-34
2023/09/18 05:30:29;;;;;;;10.65;7.70;;;18.20;99.90;;;;;;4986402;28;20141;-34
2023/09/18 05:32:55;;;;;;;12.90;8.00;;;18.20;99.90;;;;;;4980859;28;20086;-34
2023/09/18 05:35:21;;;;;;;10.35;7.32;;;18.20;99.90;;;;;;4986250;28;20060;-34
2023/09/18 05:37:47;;;;;;;11.25;7.95;;;18.20;99.90;;;;;;4984541;28;20500;-34
2023/09/18 05:40:13;;;;;;;8.52;6.38;;;18.20;99.90;;;;;;4964466;28;20054;-34
2023/09/18 05:42:43;;;;;;;11.88;7.43;;;18.30;99.90;;;;;;4983989;28;20057;-34
2023/09/18 05:45:10;;;;;;;11.73;7.45;;;18.40;99.90;;;;;;4983503;28;20116;-34
2023/09/18 05:47:37;;;;;;;10.50;7.13;;;18.40;99.90;;;;;;4979820;28;20527;-34
2023/09/18 05:50:06;;;;;;;11.43;8.18;;;18.40;99.90;;;;;;4980966;28;20145;-34
2023/09/18 05:52:33;;;;;;;12.90;7.65;;;18.40;99.90;;;;;;4986115;28;20050;-34
2023/09/18 05:54:59;;;;;;;10.50;7.43;;;18.40;99.90;;;;;;4990570;28;20053;-35
2023/09/18 05:57:27;;;;;;;13.00;7.85;;;18.40;99.90;;;;;;4989472;28;20479;-34
2023/09/18 05:59:56;;;;;;;13.57;8.40;;;18.40;99.90;;;;;;4988670;28;20496;-34
2023/09/18 06:02:22;;;;;;;12.82;8.65;;;18.40;99.90;;;;;;4987300;28;20052;-34
2023/09/18 06:04:48;;;;;;;10.82;8.38;;;18.40;99.90;;;;;;4990815;28;20138;-34
2023/09/18 06:07:14;;;;;;;14.95;8.80;;;18.40;99.90;;;;;;4987021;28;20463;-34
2023/09/18 06:09:40;;;;;;;11.82;8.45;;;18.40;99.90;;;;;;4987862;28;20328;-34
2023/09/18 06:12:07;;;;;;;13.52;7.93;;;18.40;99.90;;;;;;5005564;28;22028;-34
2023/09/18 06:14:34;;;;;;;15.18;8.32;;;18.40;99.90;;;;;;4988883;28;20499;-34
2023/09/18 06:17:01;;;;;;;12.25;8.63;;;18.40;99.90;;;;;;4983845;28;20042;-34
2023/09/18 06:19:26;;;;;;;13.32;7.57;;;18.40;99.90;;;;;;4990521;28;20089;-34
2023/09/18 06:21:52;;;;;;;11.18;8.45;;;18.40;99.90;;;;;;4990048;28;20049;-34
2023/09/18 06:24:18;;;;;;;13.43;8.20;;;18.50;99.90;;;;;;4988397;28;20050;-34
2023/09/18 06:26:43;;;;;;;12.77;7.43;;;18.50;99.90;;;;;;4986092;28;20046;-34
2023/09/18 06:29:09;;;;;;;12.65;7.65;;;18.50;99.90;;;;;;4990794;28;20077;-34
2023/09/18 06:31:35;;;;;;;12.82;8.35;;;18.60;99.90;;;;;;4987156;28;20058;-34
2023/09/18 06:34:01;;;;;;;11.77;8.55;;;18.60;99.90;;;;;;4987509;28;20092;-34
2023/09/18 06:36:26;;;;;;;12.00;8.23;;;18.60;99.90;;;;;;4979987;28;20482;-34
2023/09/18 06:38:53;;;;;;;14.15;8.15;;;18.60;99.90;;;;;;4986158;28;20172;-34
2023/09/18 06:41:18;;;;;;;11.88;7.80;;;18.60;99.90;;;;;;4989934;28;20121;-34
2023/09/18 06:43:44;;;;;;;12.73;8.23;;;18.60;99.90;;;;;;4970349;28;20176;-35
2023/09/18 06:46:10;;;;;;;13.75;8.20;;;18.70;99.90;;;;;;4987118;28;20088;-34
2023/09/18 06:48:36;;;;;;;12.35;7.40;;;18.60;99.90;;;;;;4982830;28;20050;-34
2023/09/18 06:51:01;;;;;;;11.93;7.70;;;18.60;99.90;;;;;;4987108;28;20050;-34
2023/09/18 06:53:30;;;;;;;16.95;9.18;;;18.60;99.90;;;;;;4989715;28;20055;-34
2023/09/18 06:55:55;;;;;;;13.85;7.22;;;18.60;99.90;;;;;;4985401;28;20050;-34
2023/09/18 06:58:21;;;;;;;13.98;9.50;;;18.60;99.90;;;;;;4986902;28;20058;-34
2023/09/18 07:00:50;;;;;;;13.27;8.93;;;18.60;99.90;;;;;;4989410;28;20058;-34
2023/09/18 07:03:16;;;;;;;12.15;8.15;;;18.60;99.90;;;;;;4985741;28;20061;-35
2023/09/18 07:05:43;;;;;;;11.38;8.10;;;18.60;99.90;;;;;;4985991;28;20062;-34
2023/09/18 07:08:11;;;;;;;14.48;8.70;;;18.60;99.90;;;;;;4987801;28;20054;-34
2023/09/18 07:10:37;;;;;;;12.13;8.45;;;18.70;99.90;;;;;;4989906;28;20153;-35
2023/09/18 07:13:03;;;;;;;12.35;8.38;;;18.70;99.90;;;;;;4988870;28;20116;-34
2023/09/18 07:15:29;;;;;;;12.00;7.90;;;18.70;99.90;;;;;;4989598;28;20058;-35
2023/09/18 07:17:54;;;;;;;11.38;6.90;;;18.60;99.90;;;;;;4990014;28;20065;-34
2023/09/18 07:20:22;;;;;;;9.27;6.32;;;18.70;99.90;;;;;;4984796;28;20126;-34
2023/09/18 07:22:48;;;;;;;9.55;6.57;;;18.70;99.90;;;;;;4987085;28;20124;-34
2023/09/18 07:25:15;;;;;;;10.15;6.35;;;18.70;99.90;;;;;;4987731;28;20608;-34
2023/09/18 07:27:44;;;;;;;12.15;6.55;;;18.70;99.90;;;;;;4988411;28;20077;-35
2023/09/18 07:30:11;;;;;;;12.23;6.57;;;18.70;99.90;;;;;;4987922;28;20050;-35
2023/09/18 07:32:37;;;;;;;8.85;5.70;;;18.70;99.90;;;;;;4984252;28;20054;-34
2023/09/18 07:35:06;;;;;;;8.27;5.72;;;18.70;99.90;;;;;;4984375;28;20046;-34
2023/09/18 07:37:32;;;;;;;7.70;5.20;;;18.70;99.90;;;;;;4964897;28;20051;-34
2023/09/18 07:39:58;;;;;;;9.68;6.10;;;18.70;99.90;;;;;;4987524;28;20065;-35
2023/09/18 07:42:27;;;;;;;11.80;6.43;;;18.70;99.90;;;;;;4985991;28;20050;-34
2023/09/18 07:44:53;;;;;;;9.27;5.75;;;18.80;99.90;;;;;;4984876;28;20057;-34
2023/09/18 07:47:19;;;;;;;12.13;7.75;;;18.80;99.90;;;;;;4985384;28;20137;-34
2023/09/18 07:49:45;;;;;;;13.02;7.47;;;18.90;99.90;;;;;;4990643;28;20125;-34
2023/09/18 07:52:11;;;;;;;9.63;6.97;;;18.90;99.90;;;;;;4985357;28;20054;-35
2023/09/18 07:54:37;;;;;;;13.65;8.20;;;18.90;99.90;;;;;;4987609;28;20056;-35
2023/09/18 07:57:03;;;;;;;11.38;8.05;;;18.90;99.90;;;;;;4986976;28;20038;-35
2023/09/18 07:59:29;;;;;;;11.20;7.72;;;18.90;99.90;;;;;;4989199;28;20436;-35
2023/09/18 08:01:54;;;;;;;12.82;7.65;;;18.90;99.90;;;;;;4986098;28;20050;-35
2023/09/18 08:04:21;;;;;;;13.05;7.57;;;18.80;99.90;;;;;;4987767;28;20046;-34
2023/09/18 08:06:47;;;;;;;11.52;7.75;;;18.90;99.90;;;;;;4986130;28;20578;-34
2023/09/18 08:09:15;;;;;;;15.65;7.63;;;18.80;99.90;;;;;;4970578;28;20052;-35
2023/09/18 08:11:44;;;;;;;14.52;7.45;;;18.90;99.90;;;;;;4984958;28;20049;-34
2023/09/18 08:14:10;;;;;;;9.77;6.72;;;18.90;99.90;;;;;;4987807;28;20038;-35
2023/09/18 08:16:38;;;;;;;10.88;6.93;;;19.00;99.90;;;;;;4986015;28;20073;-34
2023/09/18 08:19:03;;;;;;;11.00;6.50;;;19.00;99.90;;;;;;4976755;28;20046;-34
2023/09/18 08:21:29;;;;;;;12.68;6.10;;;19.00;99.90;;;;;;4986294;28;20100;-35
2023/09/18 08:23:55;;;;;;;13.75;5.95;;;19.00;99.90;;;;;;4988829;28;20053;-35
2023/09/18 08:26:22;;;;;;;9.02;6.25;;;19.10;99.90;;;;;;4983170;28;20074;-34
2023/09/18 08:28:47;;;;;;;8.88;5.75;;;19.10;99.90;;;;;;4987873;28;20053;-34
2023/09/18 08:31:16;;;;;;;8.90;5.97;;;19.10;99.90;;;;;;4989707;28;20046;-34
2023/09/18 08:33:42;;;;;;;10.32;6.63;;;19.10;99.90;;;;;;4986859;28;20096;-35
2023/09/18 08:36:08;;;;;;;8.68;5.97;;;19.10;99.90;;;;;;4987588;28;20053;-35
2023/09/18 08:38:33;;;;;;;9.15;6.07;;;19.20;99.90;;;;;;4986892;28;20050;-35
2023/09/18 08:40:59;;;;;;;9.57;6.30;;;19.20;99.90;;;;;;4985164;28;20049;-34
2023/09/18 08:43:26;;;;;;;12.10;6.90;;;19.20;99.90;;;;;;4986684;28;20054;-34
2023/09/18 08:45:53;;;;;;;10.38;6.43;;;19.20;99.90;;;;;;4989829;28;20054;-35
2023/09/18 08:48:21;;;;;;;13.32;7.72;;;19.30;99.90;;;;;;4986573;28;20066;-35
2023/09/18 08:50:48;;;;;;;9.27;6.13;;;19.30;99.90;;;;;;4983736;28;20074;-34
2023/09/18 08:53:14;;;;;;;10.68;7.35;;;19.30;99.90;;;;;;4983990;28;20055;-35
2023/09/18 08:55:40;;;;;;;12.55;7.50;;;19.30;99.90;;;;;;4988398;28;20058;-34
2023/09/18 08:58:09;;;;;;;13.45;7.78;;;19.40;99.90;;;;;;4985292;28;20057;-34
2023/09/18 09:00:37;;;;;;;12.40;7.10;;;19.40;99.90;;;;;;4987418;28;20145;-34
2023/09/18 09:03:04;;;;;;;9.48;6.53;;;19.50;99.90;;;;;;4981570;28;20483;-35
2023/09/18 09:05:30;;;;;;;12.00;7.35;;;19.60;99.90;;;;;;4987018;28;20056;-34
2023/09/18 09:07:57;;;;;;;9.73;7.05;;;19.70;99.90;;;;;;4986633;28;20137;-35
2023/09/18 09:10:22;;;;;;;11.68;7.38;;;19.70;99.90;;;;;;4988823;28;20050;-34
2023/09/18 09:12:50;;;;;;;7.93;6.18;;;19.80;99.90;;;;;;4987488;28;20111;-36
2023/09/18 09:15:17;;;;;;;10.43;7.30;;;19.90;99.90;;;;;;4988927;28;20574;-36
2023/09/18 09:17:44;;;;;;;8.60;6.40;;;19.90;99.90;;;;;;4983432;28;20467;-35
2023/09/18 09:20:11;;;;;;;9.07;6.35;;;19.90;99.90;;;;;;4983580;28;20133;-35
2023/09/18 09:22:40;;;;;;;9.95;5.70;;;20.00;99.90;;;;;;4981069;28;20087;-35
2023/09/18 09:25:21;;;;;;;8.50;5.43;;;20.00;99.90;;;;;;4983792;28;20408;-35
2023/09/18 09:27:47;;;;;;;7.90;6.27;;;20.00;99.90;;;;;;4982530;28;20562;-35
2023/09/18 09:30:24;;;;;;;10.60;6.05;;;20.10;99.90;;;;;;4988276;28;20058;-35
2023/09/18 09:32:52;;;;;;;10.25;6.55;;;20.10;99.90;;;;;;4981352;28;20058;-35
2023/09/18 09:35:22;;;;;;;10.75;5.85;;;20.20;99.90;;;;;;4983477;28;20504;-35
2023/09/18 09:37:51;;;;;;;8.73;5.47;;;20.30;99.90;;;;;;4983173;28;20061;-35
2023/09/18 09:40:19;;;;;;;6.63;5.28;;;20.30;99.90;;;;;;4984748;28;20493;-35
2023/09/18 09:42:46;;;;;;;11.63;5.80;;;20.40;99.90;;;;;;4962755;28;20042;-35
2023/09/18 09:45:15;;;;;;;10.05;5.90;;;20.50;99.90;;;;;;4986291;28;20049;-35
2023/09/18 09:47:42;;;;;;;8.82;5.07;;;20.50;99.90;;;;;;4982013;28;20138;-35
2023/09/18 09:50:18;;;;;;;9.63;6.00;;;20.50;99.90;;;;;;4986196;28;20046;-34
2023/09/18 09:52:50;;;;;;;7.32;4.43;;;20.50;99.90;;;;;;4983703;28;20505;-35
2023/09/18 09:55:20;;;;;;;6.55;4.70;;;20.60;99.90;;;;;;4986921;28;20058;-35
2023/09/18 09:57:54;;;;;;;6.40;4.45;;;20.60;99.90;;;;;;4985159;28;20559;-35
2023/09/18 10:00:36;;;;;;;7.80;4.50;;;20.60;99.90;;;;;;4985583;28;20104;-35
2023/09/18 10:03:04;;;;;;;8.20;5.35;;;20.60;99.90;;;;;;4985697;28;20492;-35
2023/09/18 10:05:36;;;;;;;6.40;5.40;;;20.70;99.90;;;;;;4986641;28;20407;-35
2023/09/18 10:08:08;;;;;;;6.72;4.38;;;20.70;99.90;;;;;;4985164;28;20055;-40
2023/09/18 10:10:42;;;;;;;5.25;4.10;;;20.70;99.90;;;;;;4983355;28;20058;-35
2023/09/18 10:13:21;;;;;;;6.85;4.70;;;20.80;99.90;;;;;;4980490;28;20516;-35
2023/09/18 10:15:50;;;;;;;6.55;3.97;;;20.80;99.90;;;;;;4978217;28;20054;-35
2023/09/18 10:18:53;;;;;;;5.88;4.03;;;20.90;99.90;;;;;;4975198;28;20076;-35
2023/09/18 10:21:38;;;;;;;7.05;3.90;;;20.90;99.90;;;;;;4981868;28;20058;-35
2023/09/18 10:24:13;;;;;;;5.75;3.60;;;21.10;99.90;;;;;;4976480;28;20552;-35
2023/09/18 10:27:06;;;;;;;5.18;3.40;;;21.20;99.90;;;;;;4984850;28;20062;-35
2023/09/18 10:29:36;;;;;;;5.15;3.63;;;21.40;99.90;;;;;;4980031;28;20050;-35
2023/09/18 10:32:09;;;;;;;5.90;3.60;;;21.50;99.90;;;;;;4987130;28;20054;-35
2023/09/18 10:34:36;;;;;;;5.88;3.92;;;21.50;99.90;;;;;;4983403;28;20496;-35
2023/09/18 10:37:06;;;;;;;8.63;3.58;;;21.50;99.90;;;;;;4987565;28;20073;-35
2023/09/18 10:39:37;;;;;;;7.00;3.95;;;21.40;99.90;;;;;;4991399;28;20063;-35
2023/09/18 10:42:03;;;;;;;4.03;3.08;;;21.40;99.90;;;;;;4985439;28;20476;-35
2023/09/18 10:44:33;;;;;;;4.60;3.60;;;21.40;99.90;;;;;;5002361;28;20058;-35
2023/09/18 10:47:01;;;;;;;5.10;3.17;;;21.40;99.90;;;;;;4989227;28;20053;-35
2023/09/18 10:49:27;;;;;;;4.50;2.90;;;21.50;99.90;;;;;;4987405;28;20515;-35
2023/09/18 10:51:56;;;;;;;4.32;3.05;;;21.50;99.90;;;;;;4985105;28;20054;-35
2023/09/18 10:54:24;;;;;;;4.43;3.10;;;21.70;99.90;;;;;;4983360;28;20058;-35
2023/09/18 10:56:50;;;;;;;3.42;2.85;;;21.70;99.90;;;;;;4989843;28;20174;-35
2023/09/18 10:59:17;;;;;;;4.20;3.22;;;21.80;99.90;;;;;;4987057;28;20487;-35
2023/09/18 11:01:44;;;;;;;6.25;2.75;;;21.80;99.90;;;;;;4990190;28;20506;-35
2023/09/18 11:04:10;;;;;;;4.47;2.72;;;21.60;99.90;;;;;;4987603;28;20131;-35
2023/09/18 11:06:59;;;;;;;5.65;2.97;;;21.40;99.90;;;;;;4983548;28;20046;-35
2023/09/18 11:09:29;;;;;;;5.07;3.30;;;21.10;99.90;;;;;;4967488;28;20045;-34
2023/09/18 11:12:03;;;;;;;7.10;3.58;;;20.80;99.90;;;;;;4988270;28;20065;-35
2023/09/18 11:14:49;;;;;;;8.95;3.70;;;20.70;99.90;;;;;;4989679;28;20050;-35
2023/09/18 11:17:28;;;;;;;7.35;3.78;;;20.60;99.90;;;;;;4987921;28;20085;-35
2023/09/18 11:20:17;;;;;;;6.55;3.33;;;20.60;99.90;;;;;;4985795;28;20051;-35
2023/09/18 11:23:00;;;;;;;6.43;3.47;;;20.70;99.90;;;;;;4987295;28;20050;-35
2023/09/18 11:25:37;;;;;;;5.05;3.00;;;21.00;99.90;;;;;;4983780;28;20054;-34
2023/09/18 11:28:06;;;;;;;4.78;3.45;;;21.30;99.90;;;;;;4987189;28;20429;-35
2023/09/18 11:30:35;;;;;;;5.57;3.05;;;21.60;99.90;;;;;;4989352;28;20050;-35
2023/09/18 11:33:03;;;;;;;4.00;2.70;;;21.80;99.90;;;;;;4991417;28;20124;-35
2023/09/18 11:35:29;;;;;;;5.07;3.33;;;21.80;99.90;;;;;;4984247;28;20058;-35
2023/09/18 11:38:08;;;;;;;5.97;3.40;;;21.70;99.90;;;;;;4986218;28;20050;-34
2023/09/18 11:40:38;;;;;;;5.65;3.25;;;21.60;99.90;;;;;;4981059;28;20136;-35
2023/09/18 11:43:29;;;;;;;6.20;2.95;;;21.60;99.90;;;;;;4983613;28;20614;-35
2023/09/18 11:45:56;;;;;;;4.10;2.63;;;21.60;99.90;;;;;;4985469;28;20061;-35
2023/09/18 11:48:36;;;;;;;4.30;2.97;;;21.70;99.90;;;;;;4986654;28;20133;-35
2023/09/18 11:51:04;;;;;;;5.57;3.40;;;21.70;99.90;;;;;;4967310;28;20082;-35
2023/09/18 11:53:35;;;;;;;5.38;3.50;;;21.80;99.90;;;;;;4984817;28;20137;-35
2023/09/18 11:56:03;;;;;;;5.47;3.70;;;21.90;99.90;;;;;;4985734;28;20046;-35
2023/09/18 11:58:28;;;;;;;4.18;2.92;;;21.80;99.90;;;;;;4988803;28;20061;-35
2023/09/18 12:00:55;;;;;;;4.47;3.10;;;21.90;99.90;;;;;;4985099;28;20368;-35
2023/09/18 12:03:25;;;;;;;6.00;3.25;;;22.10;99.90;;;;;;4998850;28;20050;-34
2023/09/18 12:05:58;;;;;;;4.28;3.40;;;22.00;99.90;;;;;;4986428;28;20133;-35
2023/09/18 12:08:28;;;;;;;7.25;3.50;;;22.00;99.90;;;;;;4987063;28;20512;-36
2023/09/18 12:10:55;;;;;;;4.50;3.33;;;22.00;99.90;;;;;;4985113;28;20568;-35
2023/09/18 12:13:21;;;;;;;3.88;3.35;;;22.10;99.90;;;;;;4988715;28;20054;-36
2023/09/18 12:15:48;;;;;;;4.10;2.90;;;22.30;99.90;;;;;;4987880;28;20058;-35
2023/09/18 12:18:14;;;;;;;5.70;3.08;;;22.40;99.90;;;;;;4982879;28;20054;-35
2023/09/18 12:20:50;;;;;;;5.28;3.15;;;22.50;99.90;;;;;;4983991;28;20078;-35
2023/09/18 12:23:19;;;;;;;3.45;2.92;;;22.60;99.90;;;;;;4983137;28;20057;-35
2023/09/18 12:25:56;;;;;;;5.38;2.60;;;22.80;99.90;;;;;;4980071;28;20116;-35
2023/09/18 12:28:22;;;;;;;8.15;2.85;;;23.00;99.90;;;;;;4987679;28;20065;-36
2023/09/18 12:30:50;;;;;;;3.30;3.00;;;23.20;99.90;;;;;;4985425;28;20058;-35
2023/09/18 12:33:17;;;;;;;6.78;3.40;;;23.50;99.90;;;;;;4989266;28;20058;-35
2023/09/18 12:35:42;;;;;;;5.03;2.92;;;23.50;99.90;;;;;;4984579;28;20485;-34
2023/09/18 12:38:18;;;;;;;4.50;2.80;;;23.30;99.90;;;;;;4988295;28;20097;-36
2023/09/18 12:40:46;;;;;;;5.60;2.40;;;23.20;99.90;;;;;;4984102;28;20563;-35
2023/09/18 12:43:15;;;;;;;4.38;2.42;;;23.00;99.90;;;;;;4987161;28;20046;-35